sensor_id;sensor_type;location;lat;lon;timestamp;P1;durP1;ratioP1;P2;durP2;ratioP2
69047;SDS011;56119;50.118;8.642;2023-05-10T00:00:35;3.50;;;2.53;;
69047;SDS011;56119;50.118;8.642;2023-05-10T00:03:01;5.28;;;3.05;;
69047;SDS011;56119;50.118;8.642;2023-05-10T00:05:29;3.40;;;2.42;;
69047;SDS011;56119;50.118;8.642;2023-05-10T00:07:55;5.72;;;3.47;;
69047;SDS011;56119;50.118;8.642;2023-05-10T00:10:21;7.57;;;4.30;;
69047;SDS011;56119;50.118;8.642;2023-05-10T00:12:47;8.15;;;4.40;;
69047;SDS011;56119;50.118;8.642;2023-05-10T00:15:13;7.45;;;4.97;;
69047;SDS011;56119;50.118;8.642;2023-05-10T00:17:39;7.30;;;5.43;;
69047;SDS011;56119;50.118;8.642;2023-05-10T00:20:05;7.13;;;4.78;;
69047;SDS011;56119;50.118;8.642;2023-05-10T00:22:32;6.55;;;4.45;;
69047;SDS011;56119;50.118;8.642;2023-05-10T00:24:58;7.70;;;3.38;;
69047;SDS011;56119;50.118;8.642;2023-05-10T00:27:24;7.80;;;3.70;;
69047;SDS011;56119;50.118;8.642;2023-05-10T00:29:50;6.72;;;3.45;;
69047;SDS011;56119;50.118;8.642;2023-05-10T00:32:16;6.57;;;3.05;;
69047;SDS011;56119;50.118;8.642;2023-05-10T00:34:42;6.97;;;3.10;;
69047;SDS011;56119;50.118;8.642;2023-05-10T00:37:08;6.95;;;2.72;;
69047;SDS011;56119;50.118;8.642;2023-05-10T00:39:34;3.72;;;2.50;;
69047;SDS011;56119;50.118;8.642;2023-05-10T00:42:00;3.67;;;2.17;;
69047;SDS011;56119;50.118;8.642;2023-05-10T00:44:26;3.85;;;2.65;;
69047;SDS011;56119;50.118;8.642;2023-05-10T00:46:52;3.47;;;2.17;;
69047;SDS011;56119;50.118;8.642;2023-05-10T00:49:18;3.67;;;2.13;;
69047;SDS011;56119;50.118;8.642;2023-05-10T00:51:45;3.70;;;2.05;;
69047;SDS011;56119;50.118;8.642;2023-05-10T00:54:11;5.28;;;2.22;;
69047;SDS011;56119;50.118;8.642;2023-05-10T00:56:38;4.05;;;2.13;;
69047;SDS011;56119;50.118;8.642;2023-05-10T00:59:05;2.88;;;1.80;;
69047;SDS011;56119;50.118;8.642;2023-05-10T01:01:31;3.08;;;1.73;;
69047;SDS011;56119;50.118;8.642;2023-05-10T01:03:57;5.07;;;1.80;;
69047;SDS011;56119;50.118;8.642;2023-05-10T01:06:23;3.35;;;1.92;;
69047;SDS011;56119;50.118;8.642;2023-05-10T01:14:57;1.15;;;0.90;;
69047;SDS011;56119;50.118;8.642;2023-05-10T01:17:23;1.30;;;1.08;;
69047;SDS011;56119;50.118;8.642;2023-05-10T01:19:49;1.50;;;0.93;;
69047;SDS011;56119;50.118;8.642;2023-05-10T01:35:36;1.27;;;0.82;;
69047;SDS011;56119;50.118;8.642;2023-05-10T01:38:16;2.15;;;0.95;;
69047;SDS011;56119;50.118;8.642;2023-05-10T01:40:48;1.92;;;0.98;;
69047;SDS011;56119;50.118;8.642;2023-05-10T01:43:22;1.73;;;1.05;;
69047;SDS011;56119;50.118;8.642;2023-05-10T01:46:02;1.85;;;1.25;;
69047;SDS011;56119;50.118;8.642;2023-05-10T01:48:35;1.13;;;1.02;;
69047;SDS011;56119;50.118;8.642;2023-05-10T01:51:02;3.22;;;0.90;;
69047;SDS011;56119;50.118;8.642;2023-05-10T01:53:29;1.60;;;1.00;;
69047;SDS011;56119;50.118;8.642;2023-05-10T01:55:56;1.80;;;0.90;;
69047;SDS011;56119;50.118;8.642;2023-05-10T01:58:23;2.60;;;1.30;;
69047;SDS011;56119;50.118;8.642;2023-05-10T02:00:50;3.78;;;1.30;;
69047;SDS011;56119;50.118;8.642;2023-05-10T02:03:18;1.52;;;1.02;;
69047;SDS011;56119;50.118;8.642;2023-05-10T02:05:46;3.88;;;1.08;;
69047;SDS011;56119;50.118;8.642;2023-05-10T02:08:14;2.53;;;1.10;;
69047;SDS011;56119;50.118;8.642;2023-05-10T02:10:41;3.45;;;1.35;;
69047;SDS011;56119;50.118;8.642;2023-05-10T02:13:08;1.98;;;1.27;;
69047;SDS011;56119;50.118;8.642;2023-05-10T02:15:35;1.23;;;1.10;;
69047;SDS011;56119;50.118;8.642;2023-05-10T02:18:02;2.45;;;1.20;;
69047;SDS011;56119;50.118;8.642;2023-05-10T02:20:30;4.43;;;1.27;;
69047;SDS011;56119;50.118;8.642;2023-05-10T02:22:57;1.83;;;1.10;;
69047;SDS011;56119;50.118;8.642;2023-05-10T02:25:23;2.88;;;1.13;;
69047;SDS011;56119;50.118;8.642;2023-05-10T02:27:50;1.88;;;1.00;;
69047;SDS011;56119;50.118;8.642;2023-05-10T02:30:17;2.20;;;1.08;;
69047;SDS011;56119;50.118;8.642;2023-05-10T02:32:44;2.75;;;1.00;;
69047;SDS011;56119;50.118;8.642;2023-05-10T02:35:10;4.47;;;2.17;;
69047;SDS011;56119;50.118;8.642;2023-05-10T02:37:37;2.08;;;1.17;;
69047;SDS011;56119;50.118;8.642;2023-05-10T02:40:03;1.85;;;1.10;;
69047;SDS011;56119;50.118;8.642;2023-05-10T02:42:31;1.73;;;1.20;;
69047;SDS011;56119;50.118;8.642;2023-05-10T02:45:01;1.58;;;1.27;;
69047;SDS011;56119;50.118;8.642;2023-05-10T02:47:28;3.10;;;1.15;;
69047;SDS011;56119;50.118;8.642;2023-05-10T02:49:54;1.65;;;1.30;;
69047;SDS011;56119;50.118;8.642;2023-05-10T02:52:28;3.22;;;1.20;;
69047;SDS011;56119;50.118;8.642;2023-05-10T02:54:56;3.38;;;0.98;;
69047;SDS011;56119;50.118;8.642;2023-05-10T02:57:28;1.88;;;1.13;;
69047;SDS011;56119;50.118;8.642;2023-05-10T02:59:55;1.25;;;1.10;;
69047;SDS011;56119;50.118;8.642;2023-05-10T03:02:21;1.83;;;0.95;;
69047;SDS011;56119;50.118;8.642;2023-05-10T03:04:47;1.67;;;1.20;;
69047;SDS011;56119;50.118;8.642;2023-05-10T03:07:13;2.53;;;1.48;;
69047;SDS011;56119;50.118;8.642;2023-05-10T03:09:39;1.77;;;1.20;;
69047;SDS011;56119;50.118;8.642;2023-05-10T03:12:13;1.77;;;1.20;;
69047;SDS011;56119;50.118;8.642;2023-05-10T03:20:11;1.48;;;1.20;;
69047;SDS011;56119;50.118;8.642;2023-05-10T03:22:46;2.35;;;1.35;;
69047;SDS011;56119;50.118;8.642;2023-05-10T03:25:13;3.20;;;1.50;;
69047;SDS011;56119;50.118;8.642;2023-05-10T03:27:41;1.70;;;1.50;;
69047;SDS011;56119;50.118;8.642;2023-05-10T03:30:10;1.52;;;1.40;;
69047;SDS011;56119;50.118;8.642;2023-05-10T03:32:36;3.08;;;1.55;;
69047;SDS011;56119;50.118;8.642;2023-05-10T03:35:08;5.85;;;1.67;;
69047;SDS011;56119;50.118;8.642;2023-05-10T03:37:35;1.83;;;1.42;;
69047;SDS011;56119;50.118;8.642;2023-05-10T03:40:01;1.85;;;1.50;;
69047;SDS011;56119;50.118;8.642;2023-05-10T03:42:27;3.33;;;1.55;;
69047;SDS011;56119;50.118;8.642;2023-05-10T03:44:53;2.95;;;1.40;;
69047;SDS011;56119;50.118;8.642;2023-05-10T03:47:19;2.67;;;1.50;;
69047;SDS011;56119;50.118;8.642;2023-05-10T03:49:45;2.38;;;1.67;;
69047;SDS011;56119;50.118;8.642;2023-05-10T03:52:11;2.03;;;1.65;;
69047;SDS011;56119;50.118;8.642;2023-05-10T03:54:37;2.47;;;1.52;;
69047;SDS011;56119;50.118;8.642;2023-05-10T03:57:03;1.60;;;1.35;;
69047;SDS011;56119;50.118;8.642;2023-05-10T03:59:29;2.47;;;1.90;;
69047;SDS011;56119;50.118;8.642;2023-05-10T04:01:56;4.63;;;1.85;;
69047;SDS011;56119;50.118;8.642;2023-05-10T04:04:21;2.65;;;2.00;;
69047;SDS011;56119;50.118;8.642;2023-05-10T04:06:48;2.13;;;1.58;;
69047;SDS011;56119;50.118;8.642;2023-05-10T04:09:14;3.17;;;1.98;;
69047;SDS011;56119;50.118;8.642;2023-05-10T04:11:41;4.40;;;1.83;;
69047;SDS011;56119;50.118;8.642;2023-05-10T04:14:07;2.97;;;1.95;;
69047;SDS011;56119;50.118;8.642;2023-05-10T04:16:33;5.93;;;1.88;;
69047;SDS011;56119;50.118;8.642;2023-05-10T04:18:59;3.75;;;2.00;;
69047;SDS011;56119;50.118;8.642;2023-05-10T04:21:25;2.58;;;2.13;;
69047;SDS011;56119;50.118;8.642;2023-05-10T04:23:51;3.28;;;2.40;;
69047;SDS011;56119;50.118;8.642;2023-05-10T04:26:17;3.92;;;2.20;;
69047;SDS011;56119;50.118;8.642;2023-05-10T04:28:43;3.58;;;2.05;;
69047;SDS011;56119;50.118;8.642;2023-05-10T04:31:10;3.70;;;2.13;;
69047;SDS011;56119;50.118;8.642;2023-05-10T04:33:36;4.43;;;2.03;;
69047;SDS011;56119;50.118;8.642;2023-05-10T04:36:02;2.47;;;2.17;;
69047;SDS011;56119;50.118;8.642;2023-05-10T04:38:28;2.28;;;1.83;;
69047;SDS011;56119;50.118;8.642;2023-05-10T04:41:03;2.83;;;2.25;;
69047;SDS011;56119;50.118;8.642;2023-05-10T04:43:29;2.80;;;2.28;;
69047;SDS011;56119;50.118;8.642;2023-05-10T04:45:58;3.78;;;2.22;;
69047;SDS011;56119;50.118;8.642;2023-05-10T04:48:24;5.35;;;2.80;;
69047;SDS011;56119;50.118;8.642;2023-05-10T04:50:50;6.25;;;2.40;;
69047;SDS011;56119;50.118;8.642;2023-05-10T04:53:16;3.13;;;2.70;;
69047;SDS011;56119;50.118;8.642;2023-05-10T04:55:42;4.35;;;2.20;;
69047;SDS011;56119;50.118;8.642;2023-05-10T04:58:08;4.05;;;2.60;;
69047;SDS011;56119;50.118;8.642;2023-05-10T05:00:34;2.75;;;2.22;;
69047;SDS011;56119;50.118;8.642;2023-05-10T05:03:00;5.53;;;2.55;;
69047;SDS011;56119;50.118;8.642;2023-05-10T05:05:26;3.97;;;2.97;;
69047;SDS011;56119;50.118;8.642;2023-05-10T05:07:52;5.35;;;2.60;;
69047;SDS011;56119;50.118;8.642;2023-05-10T05:10:18;3.08;;;2.50;;
69047;SDS011;56119;50.118;8.642;2023-05-10T05:12:44;5.85;;;2.65;;
69047;SDS011;56119;50.118;8.642;2023-05-10T05:15:10;3.55;;;3.00;;
69047;SDS011;56119;50.118;8.642;2023-05-10T05:17:36;5.45;;;3.13;;
69047;SDS011;56119;50.118;8.642;2023-05-10T05:20:02;5.85;;;3.67;;
69047;SDS011;56119;50.118;8.642;2023-05-10T05:22:29;4.53;;;3.50;;
69047;SDS011;56119;50.118;8.642;2023-05-10T05:24:55;4.57;;;3.10;;
69047;SDS011;56119;50.118;8.642;2023-05-10T05:27:21;4.97;;;3.25;;
69047;SDS011;56119;50.118;8.642;2023-05-10T05:29:49;4.30;;;2.80;;
69047;SDS011;56119;50.118;8.642;2023-05-10T05:32:16;4.45;;;2.90;;
69047;SDS011;56119;50.118;8.642;2023-05-10T05:34:44;5.32;;;3.25;;
69047;SDS011;56119;50.118;8.642;2023-05-10T05:37:17;6.97;;;3.47;;
69047;SDS011;56119;50.118;8.642;2023-05-10T05:39:43;4.38;;;3.10;;
69047;SDS011;56119;50.118;8.642;2023-05-10T05:42:10;5.32;;;3.33;;
69047;SDS011;56119;50.118;8.642;2023-05-10T05:44:36;5.18;;;3.85;;
69047;SDS011;56119;50.118;8.642;2023-05-10T05:47:02;5.22;;;4.05;;
69047;SDS011;56119;50.118;8.642;2023-05-10T05:49:28;4.80;;;3.60;;
69047;SDS011;56119;50.118;8.642;2023-05-10T05:51:54;5.95;;;4.40;;
69047;SDS011;56119;50.118;8.642;2023-05-10T05:54:20;8.57;;;4.28;;
69047;SDS011;56119;50.118;8.642;2023-05-10T05:56:49;6.47;;;3.88;;
69047;SDS011;56119;50.118;8.642;2023-05-10T05:59:15;7.70;;;4.22;;
69047;SDS011;56119;50.118;8.642;2023-05-10T06:01:41;5.95;;;4.00;;
69047;SDS011;56119;50.118;8.642;2023-05-10T06:04:07;5.07;;;4.20;;
69047;SDS011;56119;50.118;8.642;2023-05-10T06:06:33;10.13;;;4.65;;
69047;SDS011;56119;50.118;8.642;2023-05-10T06:08:59;7.35;;;4.78;;
69047;SDS011;56119;50.118;8.642;2023-05-10T06:11:25;6.93;;;4.25;;
69047;SDS011;56119;50.118;8.642;2023-05-10T06:13:51;5.22;;;4.05;;
69047;SDS011;56119;50.118;8.642;2023-05-10T06:16:17;6.97;;;3.80;;
69047;SDS011;56119;50.118;8.642;2023-05-10T06:18:43;8.35;;;4.60;;
69047;SDS011;56119;50.118;8.642;2023-05-10T06:21:09;5.68;;;4.25;;
69047;SDS011;56119;50.118;8.642;2023-05-10T06:23:35;5.85;;;4.03;;
69047;SDS011;56119;50.118;8.642;2023-05-10T06:26:01;6.35;;;4.40;;
69047;SDS011;56119;50.118;8.642;2023-05-10T06:28:28;7.47;;;4.60;;
69047;SDS011;56119;50.118;8.642;2023-05-10T06:30:56;5.47;;;3.78;;
69047;SDS011;56119;50.118;8.642;2023-05-10T06:33:22;6.28;;;3.95;;
69047;SDS011;56119;50.118;8.642;2023-05-10T06:35:48;6.72;;;4.07;;
69047;SDS011;56119;50.118;8.642;2023-05-10T06:38:14;5.85;;;4.50;;
69047;SDS011;56119;50.118;8.642;2023-05-10T06:40:43;8.30;;;4.78;;
69047;SDS011;56119;50.118;8.642;2023-05-10T06:43:09;6.65;;;3.63;;
69047;SDS011;56119;50.118;8.642;2023-05-10T06:45:35;6.38;;;3.92;;
69047;SDS011;56119;50.118;8.642;2023-05-10T06:48:01;6.85;;;4.38;;
69047;SDS011;56119;50.118;8.642;2023-05-10T06:50:27;11.55;;;4.65;;
69047;SDS011;56119;50.118;8.642;2023-05-10T06:52:53;6.78;;;4.28;;
69047;SDS011;56119;50.118;8.642;2023-05-10T06:55:20;8.85;;;4.50;;
69047;SDS011;56119;50.118;8.642;2023-05-10T06:57:46;6.93;;;4.72;;
69047;SDS011;56119;50.118;8.642;2023-05-10T07:00:13;8.93;;;5.10;;
69047;SDS011;56119;50.118;8.642;2023-05-10T07:02:39;9.63;;;5.07;;
69047;SDS011;56119;50.118;8.642;2023-05-10T07:05:05;6.30;;;4.75;;
69047;SDS011;56119;50.118;8.642;2023-05-10T07:07:31;7.97;;;5.47;;
69047;SDS011;56119;50.118;8.642;2023-05-10T07:09:57;7.07;;;4.63;;
69047;SDS011;56119;50.118;8.642;2023-05-10T07:12:24;6.80;;;4.72;;
69047;SDS011;56119;50.118;8.642;2023-05-10T07:14:51;6.65;;;3.72;;
69047;SDS011;56119;50.118;8.642;2023-05-10T07:17:17;7.57;;;5.03;;
69047;SDS011;56119;50.118;8.642;2023-05-10T07:19:43;6.82;;;4.47;;
69047;SDS011;56119;50.118;8.642;2023-05-10T07:22:09;9.52;;;4.10;;
69047;SDS011;56119;50.118;8.642;2023-05-10T07:24:35;6.22;;;3.65;;
69047;SDS011;56119;50.118;8.642;2023-05-10T07:27:01;7.15;;;4.53;;
69047;SDS011;56119;50.118;8.642;2023-05-10T07:29:27;7.65;;;4.32;;
69047;SDS011;56119;50.118;8.642;2023-05-10T07:31:53;9.30;;;5.70;;
69047;SDS011;56119;50.118;8.642;2023-05-10T07:34:20;10.55;;;4.60;;
69047;SDS011;56119;50.118;8.642;2023-05-10T07:36:46;9.60;;;4.72;;
69047;SDS011;56119;50.118;8.642;2023-05-10T07:39:12;7.18;;;4.22;;
69047;SDS011;56119;50.118;8.642;2023-05-10T07:41:38;5.97;;;3.90;;
69047;SDS011;56119;50.118;8.642;2023-05-10T07:44:04;7.25;;;3.85;;
69047;SDS011;56119;50.118;8.642;2023-05-10T07:46:30;7.10;;;4.15;;
69047;SDS011;56119;50.118;8.642;2023-05-10T07:48:56;9.00;;;4.80;;
69047;SDS011;56119;50.118;8.642;2023-05-10T07:51:22;5.90;;;4.00;;
69047;SDS011;56119;50.118;8.642;2023-05-10T07:53:49;6.43;;;4.03;;
69047;SDS011;56119;50.118;8.642;2023-05-10T07:56:27;6.28;;;4.10;;
69047;SDS011;56119;50.118;8.642;2023-05-10T07:58:57;7.30;;;3.95;;
69047;SDS011;56119;50.118;8.642;2023-05-10T08:01:24;6.15;;;4.70;;
69047;SDS011;56119;50.118;8.642;2023-05-10T08:03:50;6.55;;;3.97;;
69047;SDS011;56119;50.118;8.642;2023-05-10T08:06:20;6.57;;;3.97;;
69047;SDS011;56119;50.118;8.642;2023-05-10T08:08:47;6.20;;;3.63;;
69047;SDS011;56119;50.118;8.642;2023-05-10T08:11:16;6.85;;;4.13;;
69047;SDS011;56119;50.118;8.642;2023-05-10T08:13:42;7.05;;;3.70;;
69047;SDS011;56119;50.118;8.642;2023-05-10T08:16:08;7.25;;;3.80;;
69047;SDS011;56119;50.118;8.642;2023-05-10T08:18:34;4.47;;;3.15;;
69047;SDS011;56119;50.118;8.642;2023-05-10T08:21:00;6.32;;;3.03;;
69047;SDS011;56119;50.118;8.642;2023-05-10T08:23:26;5.75;;;3.30;;
69047;SDS011;56119;50.118;8.642;2023-05-10T08:25:52;6.22;;;3.60;;
69047;SDS011;56119;50.118;8.642;2023-05-10T08:28:18;9.38;;;3.47;;
69047;SDS011;56119;50.118;8.642;2023-05-10T08:30:44;5.35;;;3.72;;
69047;SDS011;56119;50.118;8.642;2023-05-10T08:33:10;7.47;;;3.53;;
69047;SDS011;56119;50.118;8.642;2023-05-10T08:35:36;11.20;;;3.50;;
69047;SDS011;56119;50.118;8.642;2023-05-10T08:38:02;6.60;;;3.50;;
69047;SDS011;56119;50.118;8.642;2023-05-10T08:40:28;5.50;;;3.58;;
69047;SDS011;56119;50.118;8.642;2023-05-10T08:43:07;4.85;;;3.08;;
69047;SDS011;56119;50.118;8.642;2023-05-10T08:45:37;6.60;;;3.03;;
69047;SDS011;56119;50.118;8.642;2023-05-10T08:48:04;4.03;;;2.65;;
69047;SDS011;56119;50.118;8.642;2023-05-10T08:50:30;5.50;;;3.10;;
69047;SDS011;56119;50.118;8.642;2023-05-10T08:52:57;6.03;;;2.67;;
69047;SDS011;56119;50.118;8.642;2023-05-10T08:55:24;7.53;;;3.20;;
69047;SDS011;56119;50.118;8.642;2023-05-10T08:57:50;5.30;;;3.22;;
69047;SDS011;56119;50.118;8.642;2023-05-10T09:00:17;5.90;;;3.10;;
69047;SDS011;56119;50.118;8.642;2023-05-10T09:02:44;5.80;;;2.65;;
69047;SDS011;56119;50.118;8.642;2023-05-10T09:05:13;6.05;;;2.97;;
69047;SDS011;56119;50.118;8.642;2023-05-10T09:07:40;4.55;;;3.33;;
69047;SDS011;56119;50.118;8.642;2023-05-10T09:10:07;8.70;;;3.47;;
69047;SDS011;56119;50.118;8.642;2023-05-10T09:12:33;6.15;;;2.80;;
69047;SDS011;56119;50.118;8.642;2023-05-10T09:15:00;6.05;;;3.05;;
69047;SDS011;56119;50.118;8.642;2023-05-10T09:17:26;7.43;;;2.80;;
69047;SDS011;56119;50.118;8.642;2023-05-10T09:19:59;8.07;;;3.75;;
69047;SDS011;56119;50.118;8.642;2023-05-10T09:22:25;5.88;;;3.30;;
69047;SDS011;56119;50.118;8.642;2023-05-10T09:27:30;6.13;;;3.15;;
69047;SDS011;56119;50.118;8.642;2023-05-10T09:29:56;5.63;;;3.00;;
69047;SDS011;56119;50.118;8.642;2023-05-10T09:32:22;5.63;;;2.92;;
69047;SDS011;56119;50.118;8.642;2023-05-10T09:35:07;4.15;;;2.60;;
69047;SDS011;56119;50.118;8.642;2023-05-10T09:37:34;4.38;;;2.85;;
69047;SDS011;56119;50.118;8.642;2023-05-10T09:40:00;5.38;;;2.78;;
69047;SDS011;56119;50.118;8.642;2023-05-10T09:42:26;2.70;;;2.00;;
69047;SDS011;56119;50.118;8.642;2023-05-10T09:44:51;3.25;;;2.00;;
69047;SDS011;56119;50.118;8.642;2023-05-10T09:47:18;3.15;;;2.15;;
69047;SDS011;56119;50.118;8.642;2023-05-10T09:49:44;4.13;;;2.40;;
69047;SDS011;56119;50.118;8.642;2023-05-10T09:52:15;5.97;;;2.65;;
69047;SDS011;56119;50.118;8.642;2023-05-10T09:54:42;3.30;;;2.10;;
69047;SDS011;56119;50.118;8.642;2023-05-10T09:57:20;3.30;;;1.80;;
69047;SDS011;56119;50.118;8.642;2023-05-10T09:59:47;3.70;;;2.10;;
69047;SDS011;56119;50.118;8.642;2023-05-10T10:02:13;3.58;;;1.80;;
69047;SDS011;56119;50.118;8.642;2023-05-10T10:04:39;6.15;;;2.40;;
69047;SDS011;56119;50.118;8.642;2023-05-10T10:07:06;5.68;;;2.30;;
69047;SDS011;56119;50.118;8.642;2023-05-10T10:09:32;3.05;;;1.77;;
69047;SDS011;56119;50.118;8.642;2023-05-10T10:11:59;2.72;;;1.65;;
69047;SDS011;56119;50.118;8.642;2023-05-10T10:14:25;5.00;;;2.20;;
69047;SDS011;56119;50.118;8.642;2023-05-10T10:16:52;3.95;;;1.98;;
69047;SDS011;56119;50.118;8.642;2023-05-10T10:19:18;5.95;;;2.53;;
69047;SDS011;56119;50.118;8.642;2023-05-10T10:21:45;3.55;;;2.55;;
69047;SDS011;56119;50.118;8.642;2023-05-10T10:24:11;6.10;;;2.45;;
69047;SDS011;56119;50.118;8.642;2023-05-10T10:26:37;6.07;;;2.85;;
69047;SDS011;56119;50.118;8.642;2023-05-10T10:31:43;5.72;;;2.42;;
69047;SDS011;56119;50.118;8.642;2023-05-10T10:34:11;4.32;;;2.20;;
69047;SDS011;56119;50.118;8.642;2023-05-10T10:36:46;3.65;;;2.13;;
69047;SDS011;56119;50.118;8.642;2023-05-10T10:39:12;3.88;;;2.00;;
69047;SDS011;56119;50.118;8.642;2023-05-10T10:41:39;3.85;;;2.30;;
69047;SDS011;56119;50.118;8.642;2023-05-10T10:52:24;2.50;;;1.17;;
69047;SDS011;56119;50.118;8.642;2023-05-10T10:55:00;2.58;;;1.60;;
69047;SDS011;56119;50.118;8.642;2023-05-10T10:57:27;2.65;;;1.38;;
69047;SDS011;56119;50.118;8.642;2023-05-10T11:07:52;1.92;;;1.38;;
69047;SDS011;56119;50.118;8.642;2023-05-10T11:10:20;1.40;;;1.00;;
69047;SDS011;56119;50.118;8.642;2023-05-10T11:12:52;2.85;;;1.23;;
69047;SDS011;56119;50.118;8.642;2023-05-10T11:15:19;3.47;;;1.60;;
69047;SDS011;56119;50.118;8.642;2023-05-10T11:17:47;2.63;;;1.20;;
69047;SDS011;56119;50.118;8.642;2023-05-10T11:20:16;3.42;;;1.25;;
69047;SDS011;56119;50.118;8.642;2023-05-10T11:22:53;2.10;;;1.42;;
69047;SDS011;56119;50.118;8.642;2023-05-10T11:25:20;3.53;;;1.75;;
69047;SDS011;56119;50.118;8.642;2023-05-10T11:27:49;4.07;;;1.40;;
69047;SDS011;56119;50.118;8.642;2023-05-10T11:30:15;2.65;;;1.00;;
69047;SDS011;56119;50.118;8.642;2023-05-10T11:32:41;2.80;;;1.35;;
69047;SDS011;56119;50.118;8.642;2023-05-10T11:35:10;2.78;;;1.55;;
69047;SDS011;56119;50.118;8.642;2023-05-10T11:37:38;2.75;;;1.77;;
69047;SDS011;56119;50.118;8.642;2023-05-10T11:40:08;5.65;;;2.00;;
69047;SDS011;56119;50.118;8.642;2023-05-10T11:42:36;2.75;;;1.13;;
69047;SDS011;56119;50.118;8.642;2023-05-10T11:45:03;3.03;;;1.40;;
69047;SDS011;56119;50.118;8.642;2023-05-10T11:47:29;1.35;;;1.20;;
69047;SDS011;56119;50.118;8.642;2023-05-10T11:49:55;1.40;;;1.00;;
69047;SDS011;56119;50.118;8.642;2023-05-10T11:52:21;2.60;;;1.40;;
69047;SDS011;56119;50.118;8.642;2023-05-10T11:54:54;2.78;;;1.55;;
69047;SDS011;56119;50.118;8.642;2023-05-10T11:57:26;3.00;;;1.50;;
69047;SDS011;56119;50.118;8.642;2023-05-10T11:59:53;3.38;;;1.45;;
69047;SDS011;56119;50.118;8.642;2023-05-10T12:02:22;2.08;;;1.77;;
69047;SDS011;56119;50.118;8.642;2023-05-10T12:04:48;2.30;;;1.60;;
69047;SDS011;56119;50.118;8.642;2023-05-10T12:07:15;3.40;;;1.80;;
69047;SDS011;56119;50.118;8.642;2023-05-10T12:09:44;4.05;;;2.00;;
69047;SDS011;56119;50.118;8.642;2023-05-10T12:12:15;3.85;;;1.52;;
69047;SDS011;56119;50.118;8.642;2023-05-10T12:14:41;2.05;;;1.77;;
69047;SDS011;56119;50.118;8.642;2023-05-10T12:17:12;2.67;;;1.70;;
69047;SDS011;56119;50.118;8.642;2023-05-10T12:19:38;2.78;;;1.80;;
69047;SDS011;56119;50.118;8.642;2023-05-10T12:22:05;4.53;;;1.80;;
69047;SDS011;56119;50.118;8.642;2023-05-10T12:24:33;3.20;;;1.77;;
69047;SDS011;56119;50.118;8.642;2023-05-10T12:26:59;5.07;;;1.70;;
69047;SDS011;56119;50.118;8.642;2023-05-10T12:29:25;2.05;;;1.13;;
69047;SDS011;56119;50.118;8.642;2023-05-10T12:31:55;3.25;;;1.15;;
69047;SDS011;56119;50.118;8.642;2023-05-10T12:34:32;2.38;;;1.10;;
69047;SDS011;56119;50.118;8.642;2023-05-10T12:36:58;1.30;;;1.00;;
69047;SDS011;56119;50.118;8.642;2023-05-10T12:39:24;2.03;;;1.00;;
69047;SDS011;56119;50.118;8.642;2023-05-10T12:41:51;2.08;;;1.00;;
69047;SDS011;56119;50.118;8.642;2023-05-10T12:44:17;2.17;;;1.02;;
69047;SDS011;56119;50.118;8.642;2023-05-10T12:46:43;2.08;;;1.00;;
69047;SDS011;56119;50.118;8.642;2023-05-10T12:49:09;4.82;;;1.15;;
69047;SDS011;56119;50.118;8.642;2023-05-10T12:51:35;3.88;;;0.95;;
69047;SDS011;56119;50.118;8.642;2023-05-10T12:54:02;1.00;;;0.80;;
69047;SDS011;56119;50.118;8.642;2023-05-10T12:56:28;3.60;;;1.40;;
69047;SDS011;56119;50.118;8.642;2023-05-10T12:58:54;1.85;;;0.95;;
69047;SDS011;56119;50.118;8.642;2023-05-10T13:01:20;1.20;;;0.95;;
69047;SDS011;56119;50.118;8.642;2023-05-10T13:03:46;0.80;;;0.60;;
69047;SDS011;56119;50.118;8.642;2023-05-10T13:06:13;2.35;;;0.65;;
69047;SDS011;56119;50.118;8.642;2023-05-10T13:08:39;3.80;;;0.85;;
69047;SDS011;56119;50.118;8.642;2023-05-10T13:11:05;3.03;;;0.65;;
69047;SDS011;56119;50.118;8.642;2023-05-10T13:13:31;2.35;;;1.13;;
69047;SDS011;56119;50.118;8.642;2023-05-10T13:15:57;2.13;;;0.73;;
69047;SDS011;56119;50.118;8.642;2023-05-10T13:18:23;1.27;;;0.90;;
69047;SDS011;56119;50.118;8.642;2023-05-10T13:20:51;2.83;;;1.10;;
69047;SDS011;56119;50.118;8.642;2023-05-10T13:23:17;1.75;;;1.13;;
69047;SDS011;56119;50.118;8.642;2023-05-10T13:25:43;2.15;;;1.30;;
69047;SDS011;56119;50.118;8.642;2023-05-10T13:28:09;5.00;;;0.90;;
69047;SDS011;56119;50.118;8.642;2023-05-10T13:30:35;1.70;;;1.00;;
69047;SDS011;56119;50.118;8.642;2023-05-10T13:33:01;2.67;;;1.05;;
69047;SDS011;56119;50.118;8.642;2023-05-10T13:35:27;2.97;;;1.02;;
69047;SDS011;56119;50.118;8.642;2023-05-10T13:37:54;1.95;;;1.27;;
69047;SDS011;56119;50.118;8.642;2023-05-10T13:40:22;1.73;;;0.82;;
69047;SDS011;56119;50.118;8.642;2023-05-10T13:42:48;1.05;;;0.80;;
69047;SDS011;56119;50.118;8.642;2023-05-10T13:45:14;1.80;;;0.88;;
69047;SDS011;56119;50.118;8.642;2023-05-10T13:47:41;1.45;;;1.02;;
69047;SDS011;56119;50.118;8.642;2023-05-10T13:50:07;1.65;;;0.70;;
69047;SDS011;56119;50.118;8.642;2023-05-10T13:52:33;3.63;;;0.88;;
69047;SDS011;56119;50.118;8.642;2023-05-10T13:54:59;6.25;;;3.45;;
69047;SDS011;56119;50.118;8.642;2023-05-10T13:57:25;3.35;;;0.93;;
69047;SDS011;56119;50.118;8.642;2023-05-10T13:59:51;2.17;;;0.82;;
69047;SDS011;56119;50.118;8.642;2023-05-10T14:02:18;1.65;;;0.70;;
69047;SDS011;56119;50.118;8.642;2023-05-10T14:04:44;1.75;;;0.90;;
69047;SDS011;56119;50.118;8.642;2023-05-10T14:07:10;1.52;;;0.70;;
69047;SDS011;56119;50.118;8.642;2023-05-10T14:09:36;2.67;;;0.70;;
69047;SDS011;56119;50.118;8.642;2023-05-10T14:12:02;3.58;;;0.85;;
69047;SDS011;56119;50.118;8.642;2023-05-10T14:14:28;1.45;;;0.95;;
69047;SDS011;56119;50.118;8.642;2023-05-10T14:16:54;2.03;;;0.75;;
69047;SDS011;56119;50.118;8.642;2023-05-10T14:19:20;2.08;;;0.85;;
69047;SDS011;56119;50.118;8.642;2023-05-10T14:21:46;1.67;;;0.77;;
69047;SDS011;56119;50.118;8.642;2023-05-10T14:24:12;1.60;;;0.90;;
69047;SDS011;56119;50.118;8.642;2023-05-10T14:26:38;3.00;;;1.02;;
69047;SDS011;56119;50.118;8.642;2023-05-10T14:29:04;2.28;;;0.98;;
69047;SDS011;56119;50.118;8.642;2023-05-10T14:31:31;1.75;;;0.82;;
69047;SDS011;56119;50.118;8.642;2023-05-10T14:33:57;1.83;;;0.85;;
69047;SDS011;56119;50.118;8.642;2023-05-10T14:36:24;1.02;;;0.88;;
69047;SDS011;56119;50.118;8.642;2023-05-10T14:38:50;1.80;;;0.70;;
69047;SDS011;56119;50.118;8.642;2023-05-10T14:41:17;3.10;;;0.80;;
69047;SDS011;56119;50.118;8.642;2023-05-10T14:43:43;1.17;;;0.68;;
69047;SDS011;56119;50.118;8.642;2023-05-10T14:46:09;1.98;;;1.00;;
69047;SDS011;56119;50.118;8.642;2023-05-10T14:48:35;2.75;;;0.82;;
69047;SDS011;56119;50.118;8.642;2023-05-10T14:51:01;2.38;;;1.00;;
69047;SDS011;56119;50.118;8.642;2023-05-10T14:53:28;1.70;;;0.90;;
69047;SDS011;56119;50.118;8.642;2023-05-10T14:55:54;2.33;;;0.80;;
69047;SDS011;56119;50.118;8.642;2023-05-10T14:58:20;1.20;;;0.47;;
69047;SDS011;56119;50.118;8.642;2023-05-10T15:00:46;1.73;;;1.13;;
69047;SDS011;56119;50.118;8.642;2023-05-10T15:03:12;5.38;;;1.42;;
69047;SDS011;56119;50.118;8.642;2023-05-10T15:05:38;3.63;;;0.93;;
69047;SDS011;56119;50.118;8.642;2023-05-10T15:08:04;1.23;;;0.80;;
69047;SDS011;56119;50.118;8.642;2023-05-10T15:10:31;2.00;;;1.00;;
69047;SDS011;56119;50.118;8.642;2023-05-10T15:12:57;2.03;;;0.80;;
69047;SDS011;56119;50.118;8.642;2023-05-10T15:15:23;2.75;;;1.00;;
69047;SDS011;56119;50.118;8.642;2023-05-10T15:17:49;2.67;;;1.20;;
69047;SDS011;56119;50.118;8.642;2023-05-10T15:20:16;1.75;;;0.90;;
69047;SDS011;56119;50.118;8.642;2023-05-10T15:22:42;4.22;;;1.45;;
69047;SDS011;56119;50.118;8.642;2023-05-10T15:25:08;0.70;;;0.70;;
69047;SDS011;56119;50.118;8.642;2023-05-10T15:27:35;2.33;;;0.80;;
69047;SDS011;56119;50.118;8.642;2023-05-10T15:30:01;2.30;;;1.30;;
69047;SDS011;56119;50.118;8.642;2023-05-10T15:32:27;3.83;;;1.20;;